Time;durP1;ratioP1;P1;durP2;ratioP2;P2;SDS_P1;SDS_P2;PMS_P1;PMS_P2;Temp;Humidity;BMP_temperature;BMP_pressure;BME280_temperature;BME280_humidity;BME280_pressure;Samples;Min_cycle;Max_cycle;Signal;HPM_P1;HPM_P2
2023/12/13 00:00:43;;;;;;;0.90;0.50;;;;;;;;;;5000349;28;20623;-87
2023/12/13 00:03:14;;;;;;;1.97;0.70;;;;;;;;;;4997837;28;20475;-88
2023/12/13 00:05:42;;;;;;;0.77;0.77;;;;;;;;;;5002614;28;20464;-85
2023/12/13 00:08:09;;;;;;;0.77;0.60;;;;;;;;;;5004659;28;20506;-88
2023/12/13 00:10:36;;;;;;;2.50;0.70;;;;;;;;;;5006124;28;20456;-87
2023/12/13 00:13:04;;;;;;;0.80;0.73;;;;;;;;;;5004108;28;20520;-85
2023/12/13 00:15:36;;;;;;;2.40;1.00;;;;;;;;;;5002345;28;20479;-87
2023/12/13 00:18:07;;;;;;;1.17;0.70;;;;;;;;;;5001350;28;20487;-87
2023/12/13 00:20:35;;;;;;;2.53;0.70;;;;;;;;;;4993460;28;20500;-87
2023/12/13 00:23:04;;;;;;;2.03;0.60;;;;;;;;;;4997531;28;20554;-86
2023/12/13 00:25:32;;;;;;;2.60;0.60;;;;;;;;;;4994470;28;20490;-88
2023/12/13 00:28:00;;;;;;;1.13;0.80;;;;;;;;;;4988029;28;20849;-86
2023/12/13 00:30:27;;;;;;;2.40;1.10;;;;;;;;;;4999215;28;21216;-88
2023/12/13 00:32:56;;;;;;;2.83;0.60;;;;;;;;;;4991549;28;20492;-87
2023/12/13 00:35:26;;;;;;;1.00;0.70;;;;;;;;;;4994407;28;20458;-88
2023/12/13 00:37:56;;;;;;;1.10;0.57;;;;;;;;;;4988734;28;20459;-87
2023/12/13 00:40:24;;;;;;;2.00;0.73;;;;;;;;;;4996707;28;20483;-88
2023/12/13 00:42:53;;;;;;;1.30;0.77;;;;;;;;;;4996426;28;20476;-88
2023/12/13 00:45:21;;;;;;;2.50;0.97;;;;;;;;;;5009219;28;20444;-88
2023/12/13 00:47:48;;;;;;;1.50;0.90;;;;;;;;;;4991495;28;20488;-86
2023/12/13 00:50:16;;;;;;;1.80;1.00;;;;;;;;;;4989468;28;20925;-87
2023/12/13 00:52:43;;;;;;;2.27;0.90;;;;;;;;;;4988726;28;20464;-88
2023/12/13 00:55:10;;;;;;;1.47;0.90;;;;;;;;;;4998626;28;20444;-88
2023/12/13 00:57:38;;;;;;;1.67;0.90;;;;;;;;;;4997454;28;21003;-88
2023/12/13 01:00:06;;;;;;;2.03;0.83;;;;;;;;;;4984878;28;20475;-88
2023/12/13 01:02:33;;;;;;;1.77;1.43;;;;;;;;;;4993817;28;20599;-89
2023/12/13 01:05:02;;;;;;;0.90;0.77;;;;;;;;;;4988564;28;20495;-88
2023/12/13 01:07:30;;;;;;;0.83;0.80;;;;;;;;;;4996065;28;20457;-88
2023/12/13 01:09:58;;;;;;;0.80;0.80;;;;;;;;;;4995949;28;20483;-88
2023/12/13 01:12:33;;;;;;;1.07;0.80;;;;;;;;;;4993665;28;20478;-87
2023/12/13 01:15:00;;;;;;;1.20;0.90;;;;;;;;;;4992557;28;20498;-88
2023/12/13 01:17:27;;;;;;;1.53;0.80;;;;;;;;;;4981056;28;20465;-87
2023/12/13 01:19:55;;;;;;;2.17;1.00;;;;;;;;;;4987911;28;20881;-87
2023/12/13 01:22:23;;;;;;;2.27;1.10;;;;;;;;;;4999384;28;20475;-88
2023/12/13 01:24:51;;;;;;;0.90;0.90;;;;;;;;;;4993230;28;20517;-88
2023/12/13 01:27:20;;;;;;;2.03;1.30;;;;;;;;;;4996237;28;20449;-88
2023/12/13 01:29:49;;;;;;;2.43;1.00;;;;;;;;;;4991288;28;20499;-87
2023/12/13 01:32:18;;;;;;;1.37;0.90;;;;;;;;;;4989352;28;21675;-88
2023/12/13 01:34:46;;;;;;;3.00;1.20;;;;;;;;;;4997925;28;20533;-88
2023/12/13 01:37:15;;;;;;;1.77;0.90;;;;;;;;;;4991439;28;20443;-87
2023/12/13 01:39:44;;;;;;;1.17;1.03;;;;;;;;;;4997252;28;20452;-87
2023/12/13 01:42:11;;;;;;;2.50;0.87;;;;;;;;;;4989164;28;20483;-87
2023/12/13 01:44:39;;;;;;;3.00;1.43;;;;;;;;;;4989642;28;20505;-88
2023/12/13 01:47:09;;;;;;;1.93;0.70;;;;;;;;;;4994657;28;20582;-87
2023/12/13 01:49:38;;;;;;;3.30;0.77;;;;;;;;;;4996270;28;20474;-87
2023/12/13 01:52:09;;;;;;;1.00;0.80;;;;;;;;;;4992933;28;20500;-87
2023/12/13 01:54:40;;;;;;;0.87;0.80;;;;;;;;;;4986212;28;20505;-86
2023/12/13 01:57:10;;;;;;;1.63;0.83;;;;;;;;;;4984134;28;20450;-86
2023/12/13 01:59:38;;;;;;;1.63;1.10;;;;;;;;;;4992679;28;20474;-87
2023/12/13 02:02:08;;;;;;;2.50;1.10;;;;;;;;;;4999724;28;20468;-86
2023/12/13 02:04:35;;;;;;;1.20;1.10;;;;;;;;;;4990723;28;20458;-87
2023/12/13 02:07:05;;;;;;;1.27;0.73;;;;;;;;;;4992867;28;20460;-88
2023/12/13 02:09:34;;;;;;;0.70;0.70;;;;;;;;;;4992693;28;20456;-87
2023/12/13 02:12:04;;;;;;;1.20;0.70;;;;;;;;;;4988790;28;20470;-86
2023/12/13 02:14:34;;;;;;;2.93;1.03;;;;;;;;;;5000386;28;20555;-88
2023/12/13 02:17:01;;;;;;;1.70;0.70;;;;;;;;;;4999707;28;20466;-84
2023/12/13 02:19:29;;;;;;;1.10;1.00;;;;;;;;;;4994746;28;20515;-89
2023/12/13 02:21:56;;;;;;;1.03;0.83;;;;;;;;;;5005093;28;20476;-88
2023/12/13 02:24:27;;;;;;;3.13;0.80;;;;;;;;;;5000134;28;20432;-88
2023/12/13 02:26:54;;;;;;;0.70;0.70;;;;;;;;;;5014807;28;20478;-88
2023/12/13 02:29:22;;;;;;;2.20;0.80;;;;;;;;;;5006068;28;20456;-87
2023/12/13 02:31:49;;;;;;;2.63;0.90;;;;;;;;;;4996873;28;20523;-86
2023/12/13 02:34:22;;;;;;;3.53;1.00;;;;;;;;;;4992715;28;20997;-85
2023/12/13 02:36:49;;;;;;;2.30;1.30;;;;;;;;;;5001882;28;20445;-86
2023/12/13 02:39:18;;;;;;;5.50;1.00;;;;;;;;;;5001597;28;20444;-88
2023/12/13 02:41:46;;;;;;;1.87;1.00;;;;;;;;;;5007820;28;20460;-87
2023/12/13 02:44:16;;;;;;;2.57;1.00;;;;;;;;;;5006597;28;20454;-89
2023/12/13 02:46:43;;;;;;;1.93;1.00;;;;;;;;;;4994626;28;20458;-88
2023/12/13 02:49:11;;;;;;;3.17;1.20;;;;;;;;;;4984373;28;20524;-87
2023/12/13 02:51:40;;;;;;;4.10;0.93;;;;;;;;;;4995749;28;20486;-88
2023/12/13 02:54:11;;;;;;;1.40;0.83;;;;;;;;;;4998962;28;20479;-86
2023/12/13 02:56:38;;;;;;;1.73;0.80;;;;;;;;;;5003426;28;20501;-86
2023/12/13 02:59:05;;;;;;;3.13;0.80;;;;;;;;;;4997715;28;20456;-86
2023/12/13 03:01:36;;;;;;;2.97;1.13;;;;;;;;;;4987370;28;20483;-87
2023/12/13 03:04:04;;;;;;;2.73;1.10;;;;;;;;;;4999472;28;20504;-87
2023/12/13 03:06:32;;;;;;;0.90;0.80;;;;;;;;;;4993207;28;20460;-87
2023/12/13 03:09:05;;;;;;;8.33;1.00;;;;;;;;;;4997801;28;20468;-87
2023/12/13 03:11:39;;;;;;;1.20;0.80;;;;;;;;;;4989277;28;20510;-87
2023/12/13 03:14:07;;;;;;;1.13;0.83;;;;;;;;;;4992566;28;20569;-87
2023/12/13 03:16:34;;;;;;;2.33;1.00;;;;;;;;;;4995772;28;20457;-88
2023/12/13 03:19:04;;;;;;;3.33;0.97;;;;;;;;;;4998063;28;20451;-87
2023/12/13 03:21:31;;;;;;;3.67;1.20;;;;;;;;;;4991164;28;20476;-87
2023/12/13 03:23:59;;;;;;;1.03;0.97;;;;;;;;;;4993016;28;20513;-87
2023/12/13 03:26:26;;;;;;;4.10;1.10;;;;;;;;;;4990083;28;20452;-87
2023/12/13 03:28:54;;;;;;;3.37;1.23;;;;;;;;;;4992000;28;20468;-88
2023/12/13 03:31:25;;;;;;;2.30;1.30;;;;;;;;;;4988701;28;21097;-86
2023/12/13 03:33:54;;;;;;;3.03;1.30;;;;;;;;;;4989979;28;20479;-88
2023/12/13 03:36:24;;;;;;;1.30;1.10;;;;;;;;;;4988583;28;20954;-87
2023/12/13 03:38:53;;;;;;;1.80;1.10;;;;;;;;;;4993931;28;20440;-88
2023/12/13 03:41:21;;;;;;;4.23;1.80;;;;;;;;;;4996505;28;20472;-88
2023/12/13 03:43:52;;;;;;;3.87;1.27;;;;;;;;;;5001582;28;20447;-86
2023/12/13 03:46:21;;;;;;;2.50;1.23;;;;;;;;;;4996364;28;20455;-87
2023/12/13 03:48:48;;;;;;;3.30;1.27;;;;;;;;;;4987415;28;20905;-87
2023/12/13 03:51:16;;;;;;;3.63;1.30;;;;;;;;;;4987588;28;20475;-88
2023/12/13 03:53:46;;;;;;;1.50;1.40;;;;;;;;;;4995657;28;20495;-88
2023/12/13 03:56:16;;;;;;;3.37;1.40;;;;;;;;;;4988676;28;20448;-88
2023/12/13 03:58:43;;;;;;;1.67;1.07;;;;;;;;;;4998571;28;20568;-89
2023/12/13 04:01:11;;;;;;;2.23;1.33;;;;;;;;;;5002185;28;20472;-85
2023/12/13 04:03:39;;;;;;;4.03;1.37;;;;;;;;;;4988295;28;20464;-86
2023/12/13 04:06:10;;;;;;;2.47;1.30;;;;;;;;;;4992372;28;20464;-86
2023/12/13 04:08:45;;;;;;;4.10;1.03;;;;;;;;;;4995970;28;20468;-87
2023/12/13 04:11:12;;;;;;;5.17;2.00;;;;;;;;;;4994651;28;20504;-87
2023/12/13 04:13:42;;;;;;;2.87;1.10;;;;;;;;;;5001000;28;20445;-88
2023/12/13 04:16:12;;;;;;;1.57;0.90;;;;;;;;;;4992880;28;20508;-87
2023/12/13 04:18:43;;;;;;;2.37;1.17;;;;;;;;;;4993317;28;20934;-87
2023/12/13 04:21:11;;;;;;;1.37;1.27;;;;;;;;;;4996035;28;20506;-87
2023/12/13 04:23:41;;;;;;;2.10;1.10;;;;;;;;;;4985672;28;20508;-87
2023/12/13 04:26:09;;;;;;;5.57;1.50;;;;;;;;;;4989080;28;20456;-88
2023/12/13 04:28:37;;;;;;;2.87;1.50;;;;;;;;;;4992221;28;21098;-87
2023/12/13 04:31:07;;;;;;;1.20;0.90;;;;;;;;;;4995520;28;20482;-87
2023/12/13 04:33:37;;;;;;;1.80;1.23;;;;;;;;;;4996012;28;20451;-87
2023/12/13 04:36:07;;;;;;;5.43;1.30;;;;;;;;;;4987583;28;20455;-87
2023/12/13 04:38:34;;;;;;;2.07;0.90;;;;;;;;;;4993267;28;20965;-87
2023/12/13 04:41:03;;;;;;;3.97;1.40;;;;;;;;;;4996843;28;20444;-86
2023/12/13 04:43:38;;;;;;;2.50;0.90;;;;;;;;;;4993673;28;20516;-87
2023/12/13 04:46:07;;;;;;;2.77;1.30;;;;;;;;;;4990786;28;20453;-87
2023/12/13 04:48:37;;;;;;;2.27;1.20;;;;;;;;;;4992772;28;20496;-88
2023/12/13 04:51:04;;;;;;;2.97;1.40;;;;;;;;;;4992980;28;20433;-88
2023/12/13 04:53:32;;;;;;;3.07;1.23;;;;;;;;;;4990113;28;20454;-87
2023/12/13 04:56:00;;;;;;;1.63;1.17;;;;;;;;;;4987492;28;20549;-86
2023/12/13 04:58:27;;;;;;;3.23;1.47;;;;;;;;;;4998039;28;20495;-88
2023/12/13 05:00:54;;;;;;;4.73;1.50;;;;;;;;;;5004431;28;20471;-89
2023/12/13 05:03:22;;;;;;;3.03;1.80;;;;;;;;;;5001617;28;20448;-87
2023/12/13 05:05:51;;;;;;;2.77;2.30;;;;;;;;;;5003222;28;20522;-88
2023/12/13 05:08:24;;;;;;;5.37;1.60;;;;;;;;;;4986805;28;20461;-87
2023/12/13 05:10:52;;;;;;;3.90;1.47;;;;;;;;;;4993012;28;20464;-87
2023/12/13 05:13:21;;;;;;;4.70;1.53;;;;;;;;;;4991277;28;20460;-86
2023/12/13 05:15:52;;;;;;;2.93;1.30;;;;;;;;;;4985947;28;20503;-87
2023/12/13 05:18:20;;;;;;;3.70;1.73;;;;;;;;;;4989755;28;20467;-86
2023/12/13 05:20:49;;;;;;;3.63;1.80;;;;;;;;;;4991967;28;20964;-86
2023/12/13 05:23:16;;;;;;;1.53;1.40;;;;;;;;;;4987292;28;20900;-87
2023/12/13 05:25:51;;;;;;;3.70;1.67;;;;;;;;;;4990827;28;20467;-85
2023/12/13 05:28:26;;;;;;;4.53;1.50;;;;;;;;;;4998368;28;20534;-87
2023/12/13 05:30:56;;;;;;;1.67;1.00;;;;;;;;;;4996996;28;20201;-86
2023/12/13 05:33:26;;;;;;;2.13;1.37;;;;;;;;;;4997399;28;20832;-87
2023/12/13 05:35:56;;;;;;;4.57;2.00;;;;;;;;;;4990585;28;20482;-87
2023/12/13 05:38:26;;;;;;;2.80;1.53;;;;;;;;;;4988447;28;20466;-88
2023/12/13 05:40:59;;;;;;;5.13;2.20;;;;;;;;;;4986428;28;20523;-86
2023/12/13 05:43:30;;;;;;;5.60;1.58;;;;;;;;;;4981043;28;20447;-86
2023/12/13 05:46:05;;;;;;;4.53;1.63;;;;;;;;;;4995408;28;20214;-86
2023/12/13 05:48:35;;;;;;;2.80;1.50;;;;;;;;;;4988895;28;20562;-87
2023/12/13 05:51:03;;;;;;;2.80;1.60;;;;;;;;;;4986806;28;20455;-86
2023/12/13 05:53:34;;;;;;;4.67;1.67;;;;;;;;;;4993694;28;20466;-86
2023/12/13 05:56:04;;;;;;;6.43;2.43;;;;;;;;;;4997790;28;20484;-87
2023/12/13 05:58:32;;;;;;;3.50;1.40;;;;;;;;;;4991231;28;20444;-87
2023/12/13 06:01:10;;;;;;;4.60;1.40;;;;;;;;;;4999989;28;20883;-87
2023/12/13 06:03:41;;;;;;;3.53;1.70;;;;;;;;;;4988310;28;20456;-87
2023/12/13 06:06:19;;;;;;;6.13;2.00;;;;;;;;;;4996331;28;20454;-86
2023/12/13 06:08:46;;;;;;;4.90;1.60;;;;;;;;;;5006358;28;20420;-88
2023/12/13 06:11:14;;;;;;;2.63;1.40;;;;;;;;;;4996634;28;20495;-85
2023/12/13 06:13:43;;;;;;;5.53;1.30;;;;;;;;;;4998436;28;20444;-87
2023/12/13 06:16:13;;;;;;;4.00;1.27;;;;;;;;;;5007230;28;20539;-87
2023/12/13 06:18:41;;;;;;;3.43;1.50;;;;;;;;;;4996564;28;20448;-86
2023/12/13 06:21:08;;;;;;;3.40;1.70;;;;;;;;;;4990627;28;20460;-87
2023/12/13 06:23:36;;;;;;;4.33;1.27;;;;;;;;;;4992145;28;20460;-86
2023/12/13 06:26:03;;;;;;;2.93;1.50;;;;;;;;;;4995535;28;20523;-85
2023/12/13 06:28:31;;;;;;;4.37;1.60;;;;;;;;;;4998503;28;20513;-86
2023/12/13 06:30:58;;;;;;;0.87;0.87;;;;;;;;;;4998822;28;20560;-87
2023/12/13 06:33:26;;;;;;;5.07;1.50;;;;;;;;;;5003682;28;20460;-86
2023/12/13 06:35:53;;;;;;;1.20;1.10;;;;;;;;;;5003919;28;20469;-89
2023/12/13 06:38:23;;;;;;;3.50;1.30;;;;;;;;;;5004317;28;20490;-89
2023/12/13 06:40:51;;;;;;;5.33;1.30;;;;;;;;;;4983825;28;20451;-87
2023/12/13 06:43:18;;;;;;;2.80;1.77;;;;;;;;;;5001947;28;20464;-87
2023/12/13 06:45:50;;;;;;;3.80;1.70;;;;;;;;;;4998101;28;20478;-87
2023/12/13 06:48:19;;;;;;;2.60;1.20;;;;;;;;;;4996561;28;20467;-86
2023/12/13 06:50:48;;;;;;;6.90;1.33;;;;;;;;;;4991732;28;20528;-87
2023/12/13 06:53:16;;;;;;;3.03;1.30;;;;;;;;;;4992117;28;20508;-87
2023/12/13 06:55:44;;;;;;;3.70;1.70;;;;;;;;;;4984289;28;20552;-87
2023/12/13 07:00:47;;;;;;;2.73;1.90;;;;;;;;;;5172014;23;20496;-86
2023/12/13 07:03:17;;;;;;;1.40;1.30;;;;;;;;;;5004885;28;20469;-87
2023/12/13 07:05:54;;;;;;;3.37;1.80;;;;;;;;;;5001826;28;20483;-87
2023/12/13 07:08:21;;;;;;;4.43;2.20;;;;;;;;;;5005037;28;20501;-87
2023/12/13 07:10:49;;;;;;;7.47;1.80;;;;;;;;;;5000999;28;20458;-86
2023/12/13 07:13:39;;;;;;;1.57;1.47;;;;;;;;;;5006203;28;20491;-87
2023/12/13 07:16:06;;;;;;;3.63;1.40;;;;;;;;;;4999326;28;20552;-87
2023/12/13 07:18:34;;;;;;;3.30;1.70;;;;;;;;;;4993572;28;20462;-88
2023/12/13 07:21:03;;;;;;;2.80;1.50;;;;;;;;;;5008893;28;20475;-88
2023/12/13 07:23:33;;;;;;;2.80;1.43;;;;;;;;;;5008118;28;20975;-86
2023/12/13 07:29:33;;;;;;;4.70;2.00;;;;;;;;;;5008311;28;20471;-87
2023/12/13 07:32:04;;;;;;;3.57;2.00;;;;;;;;;;4991885;28;20476;-87
2023/12/13 07:34:44;;;;;;;2.00;1.30;;;;;;;;;;4967359;28;20461;-88
2023/12/13 07:37:13;;;;;;;5.40;1.60;;;;;;;;;;4975106;28;20460;-86
2023/12/13 07:39:54;;;;;;;6.03;1.90;;;;;;;;;;4971266;28;20440;-88
2023/12/13 07:42:31;;;;;;;2.33;1.73;;;;;;;;;;4965549;28;20491;-85
2023/12/13 07:45:02;;;;;;;4.23;2.20;;;;;;;;;;4967349;28;20511;-86
2023/12/13 07:47:34;;;;;;;7.10;2.17;;;;;;;;;;4967777;28;20453;-86
2023/12/13 07:50:03;;;;;;;4.57;1.97;;;;;;;;;;4968096;28;20520;-87
2023/12/13 07:52:33;;;;;;;3.53;1.97;;;;;;;;;;4968950;28;20523;-85
2023/12/13 07:55:06;;;;;;;3.83;1.90;;;;;;;;;;4974302;28;20482;-87
2023/12/13 07:57:34;;;;;;;4.10;1.70;;;;;;;;;;4978672;28;20716;-89
2023/12/13 08:00:06;;;;;;;4.47;2.20;;;;;;;;;;4982114;28;20452;-87
2023/12/13 08:02:33;;;;;;;5.47;2.13;;;;;;;;;;4971329;28;20576;-87
2023/12/13 08:05:10;;;;;;;5.90;2.30;;;;;;;;;;4972083;28;20543;-88
2023/12/13 08:07:41;;;;;;;5.40;2.10;;;;;;;;;;4972460;28;20464;-87
2023/12/13 08:10:11;;;;;;;4.00;1.90;;;;;;;;;;4980223;28;20932;-87
2023/12/13 08:12:42;;;;;;;3.13;1.90;;;;;;;;;;4988071;28;20887;-87
2023/12/13 08:15:14;;;;;;;3.13;2.00;;;;;;;;;;4966056;28;20525;-87
2023/12/13 08:17:52;;;;;;;3.87;1.60;;;;;;;;;;4983224;28;20546;-88
2023/12/13 08:20:23;;;;;;;5.17;2.67;;;;;;;;;;4976497;28;20461;-87
2023/12/13 08:22:53;;;;;;;6.43;2.50;;;;;;;;;;4960982;28;20496;-87
2023/12/13 08:25:20;;;;;;;3.63;1.73;;;;;;;;;;4976512;28;20512;-84
2023/12/13 08:27:56;;;;;;;3.97;1.90;;;;;;;;;;4975909;28;20447;-88
2023/12/13 08:30:25;;;;;;;3.70;1.77;;;;;;;;;;4974275;28;20457;-86
2023/12/13 08:32:54;;;;;;;7.87;2.60;;;;;;;;;;4974199;28;20495;-86
2023/12/13 08:35:22;;;;;;;2.20;1.70;;;;;;;;;;4974384;28;20465;-88
2023/12/13 08:37:51;;;;;;;2.90;2.43;;;;;;;;;;4971762;28;20505;-89
2023/12/13 08:40:21;;;;;;;3.73;2.20;;;;;;;;;;4970694;28;20440;-88
2023/12/13 08:42:48;;;;;;;3.57;1.60;;;;;;;;;;5237167;23;22039;-87
2023/12/13 08:47:57;;;;;;;3.97;2.20;;;;;;;;;;5233909;22;20478;-87
2023/12/13 08:50:26;;;;;;;6.10;2.47;;;;;;;;;;5047253;28;20974;-87
2023/12/13 08:52:54;;;;;;;7.80;2.33;;;;;;;;;;5033351;28;20553;-86
2023/12/13 08:55:21;;;;;;;4.60;2.07;;;;;;;;;;5023660;28;20482;-86
2023/12/13 08:57:50;;;;;;;3.47;2.00;;;;;;;;;;5037764;28;20506;-87
2023/12/13 09:00:24;;;;;;;2.47;1.63;;;;;;;;;;5023810;28;20470;-88
2023/12/13 09:02:52;;;;;;;10.10;2.33;;;;;;;;;;5026307;28;21016;-87
2023/12/13 09:05:21;;;;;;;3.77;2.40;;;;;;;;;;5022186;28;20555;-89
2023/12/13 09:07:50;;;;;;;7.50;2.20;;;;;;;;;;5026807;28;20493;-87
2023/12/13 09:10:18;;;;;;;4.43;2.40;;;;;;;;;;5025806;28;20465;-88
2023/12/13 09:12:45;;;;;;;3.83;2.30;;;;;;;;;;5034566;28;21070;-88
2023/12/13 09:15:21;;;;;;;4.83;2.00;;;;;;;;;;5031727;28;20592;-86
2023/12/13 09:17:51;;;;;;;3.63;1.90;;;;;;;;;;5029470;28;20918;-88
2023/12/13 09:20:21;;;;;;;6.53;2.70;;;;;;;;;;5026670;28;20575;-87
2023/12/13 09:22:53;;;;;;;4.20;2.17;;;;;;;;;;5033726;28;20505;-88
2023/12/13 09:25:26;;;;;;;5.20;2.83;;;;;;;;;;5022434;28;20478;-86
2023/12/13 09:28:01;;;;;;;1.97;1.87;;;;;;;;;;5025790;28;20538;-87
2023/12/13 09:30:35;;;;;;;3.07;2.17;;;;;;;;;;5021308;28;20969;-87
2023/12/13 09:33:07;;;;;;;2.30;1.63;;;;;;;;;;5022506;28;20466;-88
2023/12/13 09:35:48;;;;;;;5.10;1.90;;;;;;;;;;5017998;28;20764;-87
2023/12/13 09:38:21;;;;;;;1.63;1.53;;;;;;;;;;5034364;28;20464;-88
2023/12/13 09:41:00;;;;;;;6.07;2.20;;;;;;;;;;5025922;28;20457;-88
2023/12/13 09:43:34;;;;;;;7.27;3.30;;;;;;;;;;5032515;28;20450;-87
2023/12/13 09:46:08;;;;;;;2.97;1.83;;;;;;;;;;5015986;28;20485;-87
2023/12/13 09:49:01;;;;;;;4.80;1.67;;;;;;;;;;5021260;28;20525;-87
2023/12/13 09:51:35;;;;;;;7.30;2.80;;;;;;;;;;5023130;28;20528;-87
2023/12/13 09:54:11;;;;;;;2.90;1.90;;;;;;;;;;5041587;28;20450;-87
2023/12/13 09:56:50;;;;;;;2.87;1.80;;;;;;;;;;5041877;28;20453;-88
2023/12/13 09:59:20;;;;;;;5.80;2.03;;;;;;;;;;5045301;28;20458;-87
2023/12/13 10:01:56;;;;;;;5.60;2.00;;;;;;;;;;5025709;28;20490;-85
2023/12/13 10:04:27;;;;;;;4.10;2.30;;;;;;;;;;5021132;28;20447;-87
2023/12/13 10:06:58;;;;;;;4.60;2.10;;;;;;;;;;5020910;28;20481;-85
2023/12/13 10:09:33;;;;;;;5.93;2.47;;;;;;;;;;5015173;28;20452;-85
2023/12/13 10:12:03;;;;;;;4.20;2.50;;;;;;;;;;5017079;28;20478;-87
2023/12/13 10:14:37;;;;;;;3.37;2.20;;;;;;;;;;5029838;28;20443;-87
2023/12/13 10:17:10;;;;;;;4.03;2.20;;;;;;;;;;5020577;28;20526;-88
2023/12/13 10:19:38;;;;;;;4.10;2.27;;;;;;;;;;5015935;28;20463;-87
2023/12/13 10:22:10;;;;;;;3.80;2.47;;;;;;;;;;5025251;28;20466;-88
2023/12/13 10:24:44;;;;;;;3.77;2.13;;;;;;;;;;5024377;28;20446;-88
2023/12/13 10:27:18;;;;;;;3.07;2.10;;;;;;;;;;5033479;28;20433;-88
2023/12/13 10:29:52;;;;;;;5.57;2.80;;;;;;;;;;5033943;28;20482;-88
2023/12/13 10:32:21;;;;;;;4.40;2.10;;;;;;;;;;5047696;28;20485;-87
2023/12/13 10:38:23;;;;;;;5.70;2.50;;;;;;;;;;5037388;28;20450;-89
2023/12/13 10:40:58;;;;;;;4.37;2.60;;;;;;;;;;5038090;28;20507;-87
2023/12/13 10:43:29;;;;;;;6.20;2.50;;;;;;;;;;5035775;28;20499;-86
2023/12/13 10:46:09;;;;;;;4.77;2.00;;;;;;;;;;5028712;28;20484;-87
2023/12/13 10:48:40;;;;;;;2.43;2.10;;;;;;;;;;5019677;28;20454;-86
2023/12/13 10:51:17;;;;;;;2.87;2.13;;;;;;;;;;5030416;28;20450;-86
2023/12/13 10:53:46;;;;;;;4.17;2.40;;;;;;;;;;5022111;28;20458;-87
2023/12/13 10:56:18;;;;;;;4.93;3.23;;;;;;;;;;5019860;28;20443;-89
2023/12/13 10:59:07;;;;;;;5.03;4.73;;;;;;;;;;5032282;28;20473;-88
2023/12/13 11:01:42;;;;;;;5.50;2.97;;;;;;;;;;5025558;28;20519;-88
2023/12/13 11:04:17;;;;;;;4.53;2.40;;;;;;;;;;5027498;28;20837;-87
2023/12/13 11:06:47;;;;;;;5.30;2.87;;;;;;;;;;5022837;28;20486;-88
2023/12/13 11:09:41;;;;;;;3.30;2.33;;;;;;;;;;5023138;28;20462;-88
2023/12/13 11:12:44;;;;;;;2.87;1.90;;;;;;;;;;5013797;28;20556;-87
2023/12/13 11:15:48;;;;;;;4.63;2.30;;;;;;;;;;5030483;28;20470;-90
2023/12/13 11:18:40;;;;;;;7.13;2.63;;;;;;;;;;4957546;28;20540;-86
2023/12/13 11:21:15;;;;;;;4.43;2.60;;;;;;;;;;5027738;28;20453;-86
2023/12/13 11:24:00;;;;;;;4.57;3.07;;;;;;;;;;5022560;28;20544;-87
2023/12/13 11:26:30;;;;;;;4.40;2.50;;;;;;;;;;5029827;28;20490;-88
2023/12/13 11:29:00;;;;;;;7.70;2.97;;;;;;;;;;5020960;28;20447;-88
2023/12/13 11:31:30;;;;;;;4.90;2.13;;;;;;;;;;5020932;28;21075;-87
2023/12/13 11:34:00;;;;;;;5.63;2.10;;;;;;;;;;5030055;28;20455;-88
2023/12/13 11:36:27;;;;;;;3.90;2.23;;;;;;;;;;5021641;28;20458;-88
2023/12/13 11:39:07;;;;;;;2.00;1.53;;;;;;;;;;5016646;28;20463;-88
2023/12/13 11:41:36;;;;;;;3.40;2.10;;;;;;;;;;5018151;28;20839;-87
2023/12/13 11:44:10;;;;;;;3.30;1.70;;;;;;;;;;5021286;28;20463;-86
2023/12/13 11:46:52;;;;;;;4.60;1.63;;;;;;;;;;5029898;28;20479;-88
2023/12/13 11:49:26;;;;;;;3.33;1.50;;;;;;;;;;5014968;28;20449;-86
2023/12/13 11:52:00;;;;;;;2.67;1.40;;;;;;;;;;5025679;28;20470;-87
2023/12/13 11:54:42;;;;;;;3.87;1.93;;;;;;;;;;5021095;28;20551;-86
2023/12/13 11:57:32;;;;;;;4.97;2.20;;;;;;;;;;5017253;28;20461;-87
2023/12/13 12:00:21;;;;;;;3.90;1.53;;;;;;;;;;5023263;28;20685;-86
2023/12/13 12:02:54;;;;;;;7.10;1.90;;;;;;;;;;5017352;28;20541;-87
2023/12/13 12:05:26;;;;;;;2.37;1.40;;;;;;;;;;5019929;28;20472;-86
2023/12/13 12:08:06;;;;;;;4.57;2.10;;;;;;;;;;5021486;28;20508;-87
2023/12/13 12:10:38;;;;;;;4.07;1.60;;;;;;;;;;5047972;28;20459;-87
2023/12/13 12:13:25;;;;;;;4.83;1.13;;;;;;;;;;5026998;28;20495;-87
2023/12/13 12:15:57;;;;;;;2.17;1.50;;;;;;;;;;5033560;28;21015;-86
2023/12/13 12:18:36;;;;;;;2.97;1.40;;;;;;;;;;5029682;28;20446;-88
2023/12/13 12:21:17;;;;;;;2.60;1.80;;;;;;;;;;5029553;28;20973;-88
2023/12/13 12:23:54;;;;;;;4.30;1.20;;;;;;;;;;5029702;28;20459;-87
2023/12/13 12:26:24;;;;;;;3.93;1.30;;;;;;;;;;5026212;28;20880;-88
2023/12/13 12:28:55;;;;;;;3.23;1.40;;;;;;;;;;5036179;28;20454;-87
2023/12/13 12:31:31;;;;;;;2.33;1.60;;;;;;;;;;5037871;28;20485;-87
2023/12/13 12:34:04;;;;;;;6.70;1.67;;;;;;;;;;5028241;28;20443;-87
2023/12/13 12:36:38;;;;;;;5.00;1.70;;;;;;;;;;5016536;28;20489;-87
2023/12/13 12:39:09;;;;;;;9.33;1.93;;;;;;;;;;5039257;28;20489;-88
2023/12/13 12:41:56;;;;;;;4.07;1.53;;;;;;;;;;5034038;28;20462;-86
2023/12/13 12:44:24;;;;;;;2.80;1.30;;;;;;;;;;5024333;28;20473;-86
2023/12/13 12:46:51;;;;;;;3.50;1.50;;;;;;;;;;5019539;28;20474;-87
2023/12/13 12:49:20;;;;;;;1.50;1.20;;;;;;;;;;5026844;28;20443;-86
2023/12/13 12:51:47;;;;;;;4.73;1.37;;;;;;;;;;5028893;28;20470;-88
2023/12/13 12:54:18;;;;;;;3.23;1.70;;;;;;;;;;5023460;28;20469;-86
2023/12/13 12:56:47;;;;;;;5.83;1.40;;;;;;;;;;5030763;28;20505;-87
2023/12/13 12:59:21;;;;;;;4.13;1.33;;;;;;;;;;5027643;28;20482;-86
2023/12/13 13:02:32;;;;;;;3.27;1.07;;;;;;;;;;5026018;28;20471;-87
2023/12/13 13:05:23;;;;;;;4.13;1.40;;;;;;;;;;5011641;28;20425;-87
2023/12/13 13:07:52;;;;;;;3.13;1.40;;;;;;;;;;5025660;28;20455;-86
2023/12/13 13:10:33;;;;;;;5.57;2.00;;;;;;;;;;5012976;28;20446;-86
2023/12/13 13:13:02;;;;;;;4.20;1.67;;;;;;;;;;5020494;28;20478;-85
2023/12/13 13:15:32;;;;;;;4.13;1.33;;;;;;;;;;5018292;28;20447;-87
2023/12/13 13:18:02;;;;;;;6.43;1.60;;;;;;;;;;5032081;28;20557;-86
2023/12/13 13:20:41;;;;;;;1.83;1.17;;;;;;;;;;5022656;28;20458;-86
2023/12/13 13:23:15;;;;;;;1.70;1.17;;;;;;;;;;5030760;28;20474;-86
2023/12/13 13:26:09;;;;;;;5.33;1.93;;;;;;;;;;5022347;28;20807;-86
2023/12/13 13:28:40;;;;;;;2.20;1.17;;;;;;;;;;5026980;28;20455;-87
2023/12/13 13:31:27;;;;;;;2.87;1.30;;;;;;;;;;5034999;28;20472;-87
2023/12/13 13:34:00;;;;;;;3.17;1.20;;;;;;;;;;5036319;28;20828;-86
2023/12/13 13:36:37;;;;;;;5.10;1.40;;;;;;;;;;5023124;28;20953;-87
2023/12/13 13:39:09;;;;;;;3.83;1.60;;;;;;;;;;5022528;28;20454;-86
2023/12/13 13:41:40;;;;;;;2.20;0.83;;;;;;;;;;5018688;28;20540;-87
2023/12/13 13:44:11;;;;;;;4.70;1.03;;;;;;;;;;5031318;28;20455;-89
2023/12/13 13:46:40;;;;;;;3.43;1.20;;;;;;;;;;5028572;28;20488;-87
2023/12/13 13:49:08;;;;;;;3.90;1.17;;;;;;;;;;5025097;28;20452;-88
2023/12/13 13:51:36;;;;;;;2.40;1.07;;;;;;;;;;5025619;28;20529;-86
2023/12/13 13:54:06;;;;;;;4.40;1.20;;;;;;;;;;5025741;28;20474;-87
2023/12/13 13:56:37;;;;;;;2.67;1.30;;;;;;;;;;5022482;28;20455;-87
2023/12/13 13:59:11;;;;;;;3.40;1.50;;;;;;;;;;5021164;28;20478;-87
2023/12/13 14:01:38;;;;;;;8.10;1.40;;;;;;;;;;5018314;28;20462;-89
2023/12/13 14:04:06;;;;;;;2.57;1.50;;;;;;;;;;5024262;28;20455;-87
2023/12/13 14:06:35;;;;;;;2.40;1.20;;;;;;;;;;5018928;28;20545;-88
2023/12/13 14:09:05;;;;;;;5.03;1.73;;;;;;;;;;5029862;28;20454;-87
2023/12/13 14:11:37;;;;;;;4.70;1.57;;;;;;;;;;5031378;28;20467;-87
2023/12/13 14:14:21;;;;;;;5.87;1.23;;;;;;;;;;5029333;28;20457;-87
2023/12/13 14:16:51;;;;;;;7.53;1.37;;;;;;;;;;5031027;28;20980;-86
2023/12/13 14:19:25;;;;;;;3.37;1.40;;;;;;;;;;5028755;28;20514;-87
2023/12/13 14:21:56;;;;;;;4.80;1.53;;;;;;;;;;5026027;28;20528;-87
2023/12/13 14:24:30;;;;;;;3.57;1.40;;;;;;;;;;5033491;28;20439;-88
2023/12/13 14:27:08;;;;;;;5.00;1.43;;;;;;;;;;5036278;28;20486;-87
2023/12/13 14:29:45;;;;;;;3.53;1.23;;;;;;;;;;5034879;28;20485;-88
2023/12/13 14:32:14;;;;;;;2.77;1.60;;;;;;;;;;5031194;28;20473;-87
2023/12/13 14:34:44;;;;;;;2.50;1.30;;;;;;;;;;5046845;28;20605;-87
2023/12/13 14:37:12;;;;;;;2.53;1.30;;;;;;;;;;5032241;28;20442;-86
2023/12/13 14:39:47;;;;;;;2.53;1.20;;;;;;;;;;5024089;28;20445;-87
2023/12/13 14:42:31;;;;;;;3.23;1.63;;;;;;;;;;5026688;28;20485;-86
2023/12/13 14:44:59;;;;;;;4.00;1.83;;;;;;;;;;5022797;28;20447;-86
2023/12/13 14:47:35;;;;;;;3.93;1.20;;;;;;;;;;5021278;28;20482;-85
2023/12/13 14:50:05;;;;;;;3.80;1.67;;;;;;;;;;5043913;28;20475;-89
2023/12/13 14:52:33;;;;;;;4.80;2.63;;;;;;;;;;5035487;28;20486;-89
2023/12/13 14:55:07;;;;;;;8.53;1.57;;;;;;;;;;5047495;28;20456;-87
2023/12/13 14:57:35;;;;;;;4.87;1.93;;;;;;;;;;5055794;28;20520;-85
2023/12/13 15:00:08;;;;;;;3.50;2.10;;;;;;;;;;5046786;28;20939;-85
2023/12/13 15:02:44;;;;;;;4.30;1.53;;;;;;;;;;5027342;28;20469;-86
2023/12/13 15:05:18;;;;;;;9.20;1.80;;;;;;;;;;5040644;28;20584;-86
2023/12/13 15:07:48;;;;;;;4.17;1.43;;;;;;;;;;5021896;28;20485;-87
2023/12/13 15:10:16;;;;;;;3.20;1.60;;;;;;;;;;5026313;28;20454;-87
2023/12/13 15:12:43;;;;;;;4.50;1.70;;;;;;;;;;5030801;28;20461;-86
2023/12/13 15:15:16;;;;;;;6.90;1.60;;;;;;;;;;5023923;28;20973;-86
2023/12/13 15:17:46;;;;;;;10.53;1.90;;;;;;;;;;5023475;28;20784;-86
2023/12/13 15:20:16;;;;;;;7.33;1.70;;;;;;;;;;5028194;28;20537;-86